Domov               UVHVVR             MKGP            O straneh              
ZDRAVSTVENO VARSTVO RASTLIN
  MREŽA AGROMET. POSTAJ
 ► PROGNOSTIČNA OBVESTILA
AGROMETEOROLOŠKI PODATKI -
ARSO
OBVLADOVANJE TVEGANJ ZARADI
NEUGODNIH VREMENSKIH RAZMER
  ► NARAVNE NESREČE
  ► SUŠA/MOČA
  ► NAMAKANJE
  ► ŽLED (gozdarstvo)
KARTOGRAFSKI PRIKAZI
SPLETNE POVEZAVE
PROJEKTI IN PUBLIKACIJE

AGROMETEOROLOŠKA MREŽA: VREMENSKE POSTAJE IN FENOLOŠKA OPAZOVANJA

Pregled podatkov za lokacijo Resje, meteorološka postaja 39326

Pregled senzorjev na lokaciji

ID Ime Zadnja
vrednost
Datum
zadnje
spremembe
Tip
senzorja
4304 Omočenost lista (U) 9 U 23.3.2019 00:00 A730WET
2437 Padavine (mm) 0 mm 23.3.2019 00:00 Rain-O-Matic
2439 Relativna vlaga 2 m (% RH) 69,62 % RH 23.3.2019 00:00 50YA
2438 Temperatura 2 m (°C) 5,18 °C 23.3.2019 00:00 50YA

Pregled podatkov zadnjih 24 ur

Zap.
št.
Datum in čas Resje
Omočenost
lista
Padavine Relativna
vlaga
2
m
Temperatura
2
m
1 22.3.2019 23:30
2 22.3.2019 23:00 9 0 69,6 5,2
3 22.3.2019 22:30 4 0 66,7 6
4 22.3.2019 22:00 3 0 66,1 6,3
5 22.3.2019 21:30 3 0 65,2 6,6
6 22.3.2019 21:00 1 0 62,2 7,5
7 22.3.2019 20:30 1 0 60,7 8,2
8 22.3.2019 20:00 1 0 59,6 8,8
9 22.3.2019 19:30 2 0 59 8,8
10 22.3.2019 19:00 0 0 53,1 9,8
11 22.3.2019 18:30 0 0 46,5 11,7
12 22.3.2019 18:00 0 0 39 13,7
13 22.3.2019 17:30 0 0 37,1 14,4
14 22.3.2019 17:00 0 0 37,2 14,7
15 22.3.2019 16:30 0 0 36,6 15,1
16 22.3.2019 16:00 0 0 36 14,8
17 22.3.2019 15:30 0 0 34,9 15
18 22.3.2019 15:00 0 0 35,7 14,9
19 22.3.2019 14:30 0 0 35,1 14,9
20 22.3.2019 14:00 0 0 35,9 14,5
21 22.3.2019 13:30 0 0 36,8 14,2
22 22.3.2019 13:00 0 0 37,2 13,6
23 22.3.2019 12:30 0 0 37,9 13,3
24 22.3.2019 12:00 0 0 39 12,6
25 22.3.2019 11:30 0 0 40,4 11,5
26 22.3.2019 11:00 0 0 40,9 11
27 22.3.2019 10:30 0 0 43,2 10,2
28 22.3.2019 10:00 0 0 46,4 9,5
29 22.3.2019 09:30 0 0 50,1 8,3
30 22.3.2019 09:00 0 0 58,4 5,6
31 22.3.2019 08:30 0 0 65 4,1
32 22.3.2019 08:00 0 0 68,7 2,5
33 22.3.2019 07:30 6 0 73,6 1,1
34 22.3.2019 07:00 10 0 83,5 -1,2
35 22.3.2019 06:30 10 0 87,4 -2,1
36 22.3.2019 06:00 10 0 83,7 -1,4
37 22.3.2019 05:30 10 0 86 -1,8
38 22.3.2019 05:00 10 0 83,6 -1,4
39 22.3.2019 04:30 10 0 80 -0,8
40 22.3.2019 04:00 10 0 78 -0,3
41 22.3.2019 03:30 10 0 78,9 -0,3
42 22.3.2019 03:00 10 0 82 -0,8
43 22.3.2019 02:30 10 0 83,2 -0,9
44 22.3.2019 02:00 10 0 80,3 -0,3
45 22.3.2019 01:30 10 0 77,3 0,4
46 22.3.2019 01:00 10 0 77,7 0,4
47 22.3.2019 00:30 7 0 74,9 0,9
48 22.3.2019 00:00 1 0 70,2 1,8
© 2011 Ministrstvo za kmetijstvo, gozdarstvo in prehrano. Vse pravice pridržane.